Veronica B — 5BUT4 — position and weather

sailwx.info

Track history (hours):
 
Tides and Currents Weather Stations Pressure Air Temp Water Temp Dewpoint Dewpoint Depression Visibility Wind Speed Wind Dir Waves Ship Positions

Veronica B

Last reported at 2018-Jun-19 02:28 UTC. Time now 2018-Jun-19 02:51 UTC.
Position N 28°29' W 016°14'.

Length 158 m; draft 7.7 m.

Type: Ship (hazmat cat D). MMSI: 209103000.

Date/timePositionNaut miles runAvg speedWind from/ knotsBaromVisibWave heightAir tempDewpointWater temp
2018-Jun-19 02:28N 28°29' W 016°14'0 0.0
2018-Jun-19 01:58N 28°29' W 016°14'0 0.0
2018-Jun-19 01:28N 28°29' W 016°14'0 0.0
2018-Jun-19 00:58N 28°29' W 016°14'0 0.0
2018-Jun-19 00:28N 28°29' W 016°14'0 0.5
2018-Jun-19 00:00N 28°29' W 016°14'5 9.9
2018-Jun-18 23:30N 28°26' W 016°09'917.5
2018-Jun-18 23:00N 28°24' W 015°60'917.7
2018-Jun-18 22:30N 28°21' W 015°50'917.7
2018-Jun-18 22:00N 28°18' W 015°40'917.4
2018-Jun-18 21:30N 28°15' W 015°31'816.1
2018-Jun-18 21:00N 28°12' W 015°23'4 8.5
2018-Jun-18 20:30N 28°08' W 015°25'1 1.6
2018-Jun-18 20:00N 28°09' W 015°25'0 0.0
2018-Jun-18 19:24N 28°09' W 015°25'0 0.0
2018-Jun-18 18:48N 28°09' W 015°25'0 0.0
2018-Jun-18 18:24N 28°09' W 015°25'0 0.0
2018-Jun-18 17:54N 28°09' W 015°25'0 0.0
2018-Jun-18 17:24N 28°09' W 015°25'0 0.0
2018-Jun-18 16:54N 28°09' W 015°25'0 0.0
2018-Jun-18 16:24N 28°09' W 015°25'0 0.0
2018-Jun-18 15:57N 28°09' W 015°25'0 0.0
2018-Jun-18 15:12N 28°09' W 015°25'0 0.0
2018-Jun-18 14:57N 28°09' W 015°25'0 0.0
2018-Jun-18 14:27N 28°09' W 015°25'0 0.0
2018-Jun-18 13:57N 28°09' W 015°25'0 0.0
2018-Jun-18 13:27N 28°09' W 015°25'0 0.0
2018-Jun-18 13:00N 28°09' W 015°25'0 0.0
2018-Jun-18 12:27N 28°09' W 015°25'0 0.0
2018-Jun-18 12:00N 28°09' W 015°25'0 0.0
2018-Jun-18 11:24N 28°09' W 015°25'0 0.0
2018-Jun-18 11:00N 28°09' W 015°25'0 0.9
2018-Jun-18 10:30N 28°08' W 015°25'3 6.7
2018-Jun-18 10:00N 28°09' W 015°21'816.8
2018-Jun-18 09:30N 28°15' W 015°14'917.5
2018-Jun-18 09:00N 28°21' W 015°07'917.1
2018-Jun-18 08:30N 28°27' W 015°00'816.8
2018-Jun-18 08:00N 28°33' W 014°54'816.5
2018-Jun-18 07:30N 28°39' W 014°47'816.5
2018-Jun-18 07:00N 28°45' W 014°40'1616.4
2018-Jun-18 06:03N 28°56' W 014°28'61916.3
2018-Jun-16 16:06N 35°58' W 005°32'715.2
2018-Jun-16 15:39N 36°00' W 005°24'215.0
2018-Jun-16 15:30N 36°01' W 005°21'714.5
2018-Jun-16 15:00N 36°04' W 005°13'18415.7
2018-Jun-16 03:18N 36°54' W 001°33'1217.1
2018-Jun-16 02:36N 37°02' W 001°22'1017.4
2018-Jun-16 02:01N 37°08' W 001°13'018.9
2018-Jun-16 02:00N 37°08' W 001°12'917.1
2018-Jun-16 01:30N 37°14' W 001°04'817.1
2018-Jun-16 01:00N 37°19' W 000°56'917.0
2018-Jun-16 00:28N 37°25' W 000°47'816.7
2018-Jun-15 23:59N 37°31' W 000°40'816.6
2018-Jun-15 23:30N 37°36' W 000°33'917.4
2018-Jun-15 23:00N 37°45' W 000°30'817.1
2018-Jun-15 22:30N 37°53' W 000°28'1717.2
2018-Jun-15 21:32N 38°10' W 000°25'117.0
2018-Jun-15 21:30N 38°10' W 000°24'6 0.2
2018-Jun-14 15:34N 38°04' W 000°25'115.7
2018-Jun-14 15:30N 38°03' W 000°25'815.8
2018-Jun-14 15:00N 37°55' W 000°27'916.1
2018-Jun-14 14:26N 37°46' W 000°28'817.7
2018-Jun-14 14:01N 37°39' W 000°29'816.8
2018-Jun-14 13:31N 37°31' W 000°35'917.7
2018-Jun-14 13:01N 37°25' W 000°43'917.5
2018-Jun-14 12:30N 37°19' W 000°51'917.4
2018-Jun-14 11:59N 37°13' W 000°59'21618.6
2018-Jun-14 00:21N 36°00' W 005°12'721.4
2018-Jun-14 00:00N 35°58' W 005°21'2617.9
2018-Jun-13 22:32N 35°55' W 005°54'59617.5
2018-Jun-12 12:25N 29°26' W 014°51'2618.0
2018-Jun-12 10:58N 29°08' W 015°13'1017.5
2018-Jun-12 10:22N 29°02' W 015°23'617.3
2018-Jun-12 10:00N 28°58' W 015°28'917.3
2018-Jun-12 09:30N 28°52' W 015°36'917.2
2018-Jun-12 09:00N 28°47' W 015°44'917.3
2018-Jun-12 08:30N 28°41' W 015°51'917.5
2018-Jun-12 08:00N 28°36' W 015°59'917.0
2018-Jun-12 07:30N 28°30' W 016°06'713.7
2018-Jun-12 07:00N 28°29' W 016°14'1 1.2
2018-Jun-12 06:28N 28°29' W 016°14'0 0.0
2018-Jun-12 05:58N 28°29' W 016°14'0 0.0
2018-Jun-12 05:28N 28°29' W 016°14'0 0.0
2018-Jun-12 04:58N 28°29' W 016°14'0 0.0
2018-Jun-12 04:28N 28°29' W 016°14'0 0.0
2018-Jun-12 03:58N 28°29' W 016°14'0 0.0
2018-Jun-12 03:28N 28°29' W 016°14'0 0.0
2018-Jun-12 02:58N 28°29' W 016°14'0 0.0
2018-Jun-12 02:28N 28°29' W 016°14'0 0.0
2018-Jun-12 01:58N 28°29' W 016°14'0 0.0
2018-Jun-12 01:28N 28°29' W 016°14'0 0.0
2018-Jun-12 00:58N 28°29' W 016°14'0 0.0
2018-Jun-12 00:28N 28°29' W 016°14'0 0.0
2018-Jun-11 23:58N 28°29' W 016°14'0 0.0
2018-Jun-11 23:28N 28°29' W 016°14'0 0.3
2018-Jun-11 23:00N 28°29' W 016°14'4 7.1
2018-Jun-11 22:30N 28°27' W 016°10'917.7
2018-Jun-11 22:00N 28°24' W 016°01'918.0
2018-Jun-11 21:30N 28°21' W 015°51'918.3
2018-Jun-11 21:00N 28°18' W 015°41'918.1
2018-Jun-11 20:30N 28°15' W 015°32'816.8
2018-Jun-11 20:00N 28°12' W 015°23'4 7.8
2018-Jun-11 19:30N 28°08' W 015°25'1 1.2
2018-Jun-11 18:58N 28°09' W 015°25'0 0.0
2018-Jun-11 18:28N 28°09' W 015°25'0 0.0
2018-Jun-11 17:46N 28°09' W 015°25'0 0.0
2018-Jun-11 17:19N 28°09' W 015°25'0 0.0
2018-Jun-11 16:52N 28°09' W 015°25'0 0.0
2018-Jun-11 16:19N 28°09' W 015°25'0 0.0
2018-Jun-11 15:52N 28°09' W 015°25'0 0.0
2018-Jun-11 15:22N 28°09' W 015°25'0 0.0
2018-Jun-11 14:52N 28°09' W 015°25'0 0.0
2018-Jun-11 14:25N 28°09' W 015°25'0 0.0
2018-Jun-11 13:55N 28°09' W 015°25'0 0.0
2018-Jun-11 13:22N 28°09' W 015°25'0 0.0
2018-Jun-11 12:52N 28°09' W 015°25'0 0.0
2018-Jun-11 12:25N 28°09' W 015°25'0 0.0
2018-Jun-11 11:55N 28°09' W 015°25'0 0.0
2018-Jun-11 11:22N 28°09' W 015°25'1 2.3
2018-Jun-11 11:00N 28°08' W 015°25'2 3.9
2018-Jun-11 10:30N 28°08' W 015°22'917.1
2018-Jun-11 10:00N 28°14' W 015°15'917.4
2018-Jun-11 09:30N 28°20' W 015°08'917.1
2018-Jun-11 09:00N 28°26' W 015°01'917.1
2018-Jun-11 08:30N 28°32' W 014°55'917.1
2018-Jun-11 08:00N 28°38' W 014°48'64116.9
2018-Jun-09 18:05N 35°57' W 005°35'115.1
2018-Jun-09 18:00N 35°58' W 005°34'714.0
2018-Jun-09 17:30N 36°00' W 005°26'713.4
2018-Jun-09 17:00N 36°03' W 005°18'714.6
2018-Jun-09 16:30N 36°05' W 005°10'20915.0
2018-Jun-09 02:35N 37°14' W 001°04'115.8
2018-Jun-09 02:30N 37°14' W 001°03'  
Track history (hours):
 
Tides and Currents Weather Stations Pressure Air Temp Water Temp Dewpoint Dewpoint Depression Visibility Wind Speed Wind Dir Waves Ship Positions

Veronica B

Last reported at 2018-Jun-19 02:28 UTC. Time now 2018-Jun-19 02:51 UTC.
Position N 28°29' W 016°14'.

Length 158 m; draft 7.7 m.

Type: Ship (hazmat cat D). MMSI: 209103000.

Date/timePositionNaut miles runAvg speedWind from/ knotsBaromVisibWave heightAir tempDewpointWater temp
2018-Jun-19 02:28N 28°29' W 016°14'0 0.0
2018-Jun-19 01:58N 28°29' W 016°14'0 0.0
2018-Jun-19 01:28N 28°29' W 016°14'0 0.0
2018-Jun-19 00:58N 28°29' W 016°14'0 0.0
2018-Jun-19 00:28N 28°29' W 016°14'0 0.5
2018-Jun-19 00:00N 28°29' W 016°14'5 9.9
2018-Jun-18 23:30N 28°26' W 016°09'917.5
2018-Jun-18 23:00N 28°24' W 015°60'917.7
2018-Jun-18 22:30N 28°21' W 015°50'917.7
2018-Jun-18 22:00N 28°18' W 015°40'917.4
2018-Jun-18 21:30N 28°15' W 015°31'816.1
2018-Jun-18 21:00N 28°12' W 015°23'4 8.5
2018-Jun-18 20:30N 28°08' W 015°25'1 1.6
2018-Jun-18 20:00N 28°09' W 015°25'0 0.0
2018-Jun-18 19:24N 28°09' W 015°25'0 0.0
2018-Jun-18 18:48N 28°09' W 015°25'0 0.0
2018-Jun-18 18:24N 28°09' W 015°25'0 0.0
2018-Jun-18 17:54N 28°09' W 015°25'0 0.0
2018-Jun-18 17:24N 28°09' W 015°25'0 0.0
2018-Jun-18 16:54N 28°09' W 015°25'0 0.0
2018-Jun-18 16:24N 28°09' W 015°25'0 0.0
2018-Jun-18 15:57N 28°09' W 015°25'0 0.0
2018-Jun-18 15:12N 28°09' W 015°25'0 0.0
2018-Jun-18 14:57N 28°09' W 015°25'0 0.0
2018-Jun-18 14:27N 28°09' W 015°25'0 0.0
2018-Jun-18 13:57N 28°09' W 015°25'0 0.0
2018-Jun-18 13:27N 28°09' W 015°25'0 0.0
2018-Jun-18 13:00N 28°09' W 015°25'0 0.0
2018-Jun-18 12:27N 28°09' W 015°25'0 0.0
2018-Jun-18 12:00N 28°09' W 015°25'0 0.0
2018-Jun-18 11:24N 28°09' W 015°25'0 0.0
2018-Jun-18 11:00N 28°09' W 015°25'0 0.9
2018-Jun-18 10:30N 28°08' W 015°25'3 6.7
2018-Jun-18 10:00N 28°09' W 015°21'816.8
2018-Jun-18 09:30N 28°15' W 015°14'917.5
2018-Jun-18 09:00N 28°21' W 015°07'917.1
2018-Jun-18 08:30N 28°27' W 015°00'816.8
2018-Jun-18 08:00N 28°33' W 014°54'816.5
2018-Jun-18 07:30N 28°39' W 014°47'816.5
2018-Jun-18 07:00N 28°45' W 014°40'1616.4
2018-Jun-18 06:03N 28°56' W 014°28'61916.3
2018-Jun-16 16:06N 35°58' W 005°32'715.2
2018-Jun-16 15:39N 36°00' W 005°24'215.0
2018-Jun-16 15:30N 36°01' W 005°21'714.5
2018-Jun-16 15:00N 36°04' W 005°13'18415.7
2018-Jun-16 03:18N 36°54' W 001°33'1217.1
2018-Jun-16 02:36N 37°02' W 001°22'1017.4
2018-Jun-16 02:01N 37°08' W 001°13'018.9
2018-Jun-16 02:00N 37°08' W 001°12'917.1
2018-Jun-16 01:30N 37°14' W 001°04'817.1
2018-Jun-16 01:00N 37°19' W 000°56'917.0
2018-Jun-16 00:28N 37°25' W 000°47'816.7
2018-Jun-15 23:59N 37°31' W 000°40'816.6
2018-Jun-15 23:30N 37°36' W 000°33'917.4
2018-Jun-15 23:00N 37°45' W 000°30'817.1
2018-Jun-15 22:30N 37°53' W 000°28'1717.2
2018-Jun-15 21:32N 38°10' W 000°25'117.0
2018-Jun-15 21:30N 38°10' W 000°24'6 0.2
2018-Jun-14 15:34N 38°04' W 000°25'115.7
2018-Jun-14 15:30N 38°03' W 000°25'815.8
2018-Jun-14 15:00N 37°55' W 000°27'916.1
2018-Jun-14 14:26N 37°46' W 000°28'817.7
2018-Jun-14 14:01N 37°39' W 000°29'816.8
2018-Jun-14 13:31N 37°31' W 000°35'917.7
2018-Jun-14 13:01N 37°25' W 000°43'917.5
2018-Jun-14 12:30N 37°19' W 000°51'917.4
2018-Jun-14 11:59N 37°13' W 000°59'21618.6
2018-Jun-14 00:21N 36°00' W 005°12'721.4
2018-Jun-14 00:00N 35°58' W 005°21'2617.9
2018-Jun-13 22:32N 35°55' W 005°54'59617.5
2018-Jun-12 12:25N 29°26' W 014°51'2618.0
2018-Jun-12 10:58N 29°08' W 015°13'1017.5
2018-Jun-12 10:22N 29°02' W 015°23'617.3
2018-Jun-12 10:00N 28°58' W 015°28'917.3
2018-Jun-12 09:30N 28°52' W 015°36'917.2
2018-Jun-12 09:00N 28°47' W 015°44'917.3
2018-Jun-12 08:30N 28°41' W 015°51'917.5
2018-Jun-12 08:00N 28°36' W 015°59'917.0
2018-Jun-12 07:30N 28°30' W 016°06'713.7
2018-Jun-12 07:00N 28°29' W 016°14'1 1.2
2018-Jun-12 06:28N 28°29' W 016°14'0 0.0
2018-Jun-12 05:58N 28°29' W 016°14'0 0.0
2018-Jun-12 05:28N 28°29' W 016°14'0 0.0
2018-Jun-12 04:58N 28°29' W 016°14'0 0.0
2018-Jun-12 04:28N 28°29' W 016°14'0 0.0
2018-Jun-12 03:58N 28°29' W 016°14'0 0.0
2018-Jun-12 03:28N 28°29' W 016°14'0 0.0
2018-Jun-12 02:58N 28°29' W 016°14'0 0.0
2018-Jun-12 02:28N 28°29' W 016°14'0 0.0
2018-Jun-12 01:58N 28°29' W 016°14'0 0.0
2018-Jun-12 01:28N 28°29' W 016°14'0 0.0
2018-Jun-12 00:58N 28°29' W 016°14'0 0.0
2018-Jun-12 00:28N 28°29' W 016°14'0 0.0
2018-Jun-11 23:58N 28°29' W 016°14'0 0.0
2018-Jun-11 23:28N 28°29' W 016°14'0 0.3
2018-Jun-11 23:00N 28°29' W 016°14'4 7.1
2018-Jun-11 22:30N 28°27' W 016°10'917.7
2018-Jun-11 22:00N 28°24' W 016°01'918.0
2018-Jun-11 21:30N 28°21' W 015°51'918.3
2018-Jun-11 21:00N 28°18' W 015°41'918.1
2018-Jun-11 20:30N 28°15' W 015°32'816.8
2018-Jun-11 20:00N 28°12' W 015°23'4 7.8
2018-Jun-11 19:30N 28°08' W 015°25'1 1.2
2018-Jun-11 18:58N 28°09' W 015°25'0 0.0
2018-Jun-11 18:28N 28°09' W 015°25'0 0.0
2018-Jun-11 17:46N 28°09' W 015°25'0 0.0
2018-Jun-11 17:19N 28°09' W 015°25'0 0.0
2018-Jun-11 16:52N 28°09' W 015°25'0 0.0
2018-Jun-11 16:19N 28°09' W 015°25'0 0.0
2018-Jun-11 15:52N 28°09' W 015°25'0 0.0
2018-Jun-11 15:22N 28°09' W 015°25'0 0.0
2018-Jun-11 14:52N 28°09' W 015°25'0 0.0
2018-Jun-11 14:25N 28°09' W 015°25'0 0.0
2018-Jun-11 13:55N 28°09' W 015°25'0 0.0
2018-Jun-11 13:22N 28°09' W 015°25'0 0.0
2018-Jun-11 12:52N 28°09' W 015°25'0 0.0
2018-Jun-11 12:25N 28°09' W 015°25'0 0.0
2018-Jun-11 11:55N 28°09' W 015°25'0 0.0
2018-Jun-11 11:22N 28°09' W 015°25'1 2.3
2018-Jun-11 11:00N 28°08' W 015°25'2 3.9
2018-Jun-11 10:30N 28°08' W 015°22'917.1
2018-Jun-11 10:00N 28°14' W 015°15'917.4
2018-Jun-11 09:30N 28°20' W 015°08'917.1
2018-Jun-11 09:00N 28°26' W 015°01'917.1
2018-Jun-11 08:30N 28°32' W 014°55'917.1
2018-Jun-11 08:00N 28°38' W 014°48'64116.9
2018-Jun-09 18:05N 35°57' W 005°35'115.1
2018-Jun-09 18:00N 35°58' W 005°34'714.0
2018-Jun-09 17:30N 36°00' W 005°26'713.4
2018-Jun-09 17:00N 36°03' W 005°18'714.6
2018-Jun-09 16:30N 36°05' W 005°10'20915.0
2018-Jun-09 02:35N 37°14' W 001°04'115.8
2018-Jun-09 02:30N 37°14' W 001°03'  

Dump ship's entire track history